x

Buoy M01 - Jordan Basin (44037) Wave Buoy

8:04pm - Sun 29th Mar 2015 All times are EDT. -4 hours from GMT.

  • Sig Wave height 6.2ft
  • Peak Period 11s
  • Wind
    13mph, 16mph gusts
  • Sea Temp 39°f
  • Air Temp 33°f
  • Sea Pressure 1018.9mb
  • Buoy M01 - Jordan Basin
  • Buoy M01 - Jordan Basin

More Historic Weather Station data

Upgrade to MSW Pro to gain access to the past 30 days of data for over 8000 Wavebouys and Weather Stations around the globe.

Join Pro

Comparision Forecast

View Surf forecast
   
Sun 03/29 8:04pm 6ft 11s 13 16 mph 1018.9mb 39f 33f
7:04pm 7ft 11s 13 16 mph 1018.6mb 39f 32f
4:04pm 6ft 11s  -  mph - 40f -
2:04pm  -   -  11 16 mph 1019.7mb - 37f
1:04pm 6ft 11s 11 16 mph 1020mb 39f 39f
12:04pm 6.5ft 11s 11 16 mph 1020.3mb 39f 39f
10:04am 6.5ft 11s  -  mph - 39f -
8:04am 7.5ft 11s 18 22 mph 1018.6mb - 32f
7:04am  -   -  18 25 mph 1017.5mb - 31f
6:04am  -   -  20 25 mph 1016.4mb - 30f
5:04am  -   -  20 27 mph 1015.4mb - 31f
4:04am 5ft 5s 22 27 mph 1014.6mb 38f 32f
3:04am 7ft 11s 22 27 mph 1014.1mb - 33f
2:04am 6.5ft 11s 22 27 mph 1013.5mb - 34f
1:04am  -   -  16 20 mph 1013.2mb - 35f
Sat 03/28 11:04pm  -   -  7 9 mph 1012.4mb - 33f
8:04pm 8.5ft 6s 25 29 mph 1008.6mb 38f 33f
7:04pm  -   -  29 36 mph 1007mb - 32f
4:04pm  -   -  29 36 mph 1004.5mb - 32f
3:04pm 7ft 6s 29 34 mph 1005.4mb 38f 32f
1:04pm  -   -  27 31 mph 1005.1mb - 35f
12:04pm 8.5ft 6s 27 34 mph 1004.9mb 39f 35f
11:04am  -   -  29 34 mph 1005.6mb - 35f
10:04am 10ft 11s 27 31 mph 1006.1mb 39f 37f
9:04am 9.5ft 11s 25 31 mph 1006.1mb 38f 37f
8:04am 9.5ft 11s 27 29 mph 1005.9mb 38f 37f
7:04am 8ft 11s 22 29 mph 1005.8mb 38f 38f
6:04am  -   -  22 27 mph 1005.6mb - 38f
5:04am 6.5ft 11s 18 20 mph 1006.3mb 39f 39f
4:04am 7ft 11s 16 18 mph 1006.2mb 38f 39f
3:04am 6ft 11s 9 11 mph 1006.3mb 38f 39f
2:04am 6ft 11s 7
mph
1006.4mb 38f 39f
Fri 03/27 11:04pm 8.5ft 11s  -  mph - 38f -
8:04pm 8ft 11s 7 11 mph 1005.9mb 39f 38f
7:04pm  -   -  9 11 mph 1004.8mb - 38f
6:04pm 7ft 11s 7 9 mph 1004.7mb 39f 38f
5:04pm 7ft 11s 11 13 mph 1004.4mb 39f 39f
4:04pm 6ft 11s 11 13 mph 1003.6mb 39f 39f
3:04pm  -   -  11 16 mph 1003.3mb - 39f
1:04pm  -   -  11 16 mph 1004.6mb - 39f
12:04pm 7.5ft 11s 13 18 mph 1004.1mb 39f 38f
10:04am  -   -  16 20 mph 1004.9mb - 38f
7:04am 9.5ft 11s  -  mph - 39f -
5:04am 7.5ft 11s 16 20 mph 1001.3mb 39f 39f
4:04am 8ft 8s 16 20 mph 1001.3mb 39f 39f
3:04am 7.5ft 8s 9 13 mph 1002.8mb 39f 39f
2:04am 7ft 8s 13 16 mph 1002.6mb - 39f
1:04am  -   -  9 13 mph 1002.9mb - 39f
12:04am 7ft 8s 11 13 mph 1003.1mb 39f 39f
Thu 03/26 11:04pm 6ft 8s 9 11 mph 1003.5mb 39f 40f
9:04pm 5ft 6s 4 7 mph 1004.5mb 39f 40f
8:04pm 5ft 6s 4
mph
1004.7mb 39f 40f
7:04pm 4.5ft 6s 7 9 mph 1005mb - 40f
5:04pm 5ft 8s 13 18 mph 1006.2mb 38f 40f
4:04pm 5ft 6s 7 9 mph 1006.3mb 38f 40f
3:04pm 5.5ft 6s 11 13 mph 1007.4mb 38f 41f
2:04pm 5ft 6s  -  mph - - -
1:04pm  -   -  13 16 mph 1009.7mb - 42f
12:04pm 5.5ft 6s 11 13 mph 1011.7mb 38f 41f
11:04am  -   -  13 16 mph 1012.6mb - 41f
10:04am 5ft 6s 16 18 mph 1013.2mb 38f 40f
9:04am 5.5ft 6s 16 20 mph 1013.8mb 38f 41f
8:04am 6.5ft 6s 18 22 mph 1013.8mb 38f 41f
7:04am 7ft 6s 22 25 mph 1014.2mb 38f 40f
6:04am 7ft 6s 22 27 mph 1014.8mb 38f 39f